sensor_id;sensor_type;location;lat;lon;timestamp;pressure;altitude;pressure_sealevel;temperature;humidity
73105;BME280;61296;50.526;30.792;2024-01-15T00:05:22;97830.56;;;-1.26;100.00
73105;BME280;61296;50.526;30.792;2024-01-15T00:20:55;97818.75;;;-1.21;100.00
73105;BME280;61296;50.526;30.792;2024-01-15T00:36:28;97821.22;;;-1.04;100.00
73105;BME280;61296;50.526;30.792;2024-01-15T00:52:01;97825.81;;;-1.17;100.00
73105;BME280;61296;50.526;30.792;2024-01-15T01:07:34;97767.09;;;-1.48;100.00
73105;BME280;61296;50.526;30.792;2024-01-15T01:23:07;97763.63;;;-1.48;100.00
73105;BME280;61296;50.526;30.792;2024-01-15T01:38:41;97789.56;;;-1.31;100.00
73105;BME280;61296;50.526;30.792;2024-01-15T01:54:14;97718.28;;;-1.83;100.00
73105;BME280;61296;50.526;30.792;2024-01-15T02:09:49;97789.13;;;-1.33;100.00
73105;BME280;61296;50.526;30.792;2024-01-15T02:25:22;97814.16;;;-1.21;100.00
73105;BME280;61296;50.526;30.792;2024-01-15T02:40:55;97757.81;;;-1.62;100.00
73105;BME280;61296;50.526;30.792;2024-01-15T02:56:28;97808.53;;;-1.28;100.00
73105;BME280;61296;50.526;30.792;2024-01-15T03:12:01;97748.16;;;-1.76;100.00
73105;BME280;61296;50.526;30.792;2024-01-15T03:27:34;97787.41;;;-1.38;100.00
73105;BME280;61296;50.526;30.792;2024-01-15T03:43:06;97812.59;;;-1.22;100.00
73105;BME280;61296;50.526;30.792;2024-01-15T03:58:39;97781.38;;;-1.47;100.00
73105;BME280;61296;50.526;30.792;2024-01-15T04:14:11;97715.47;;;-2.11;100.00
73105;BME280;61296;50.526;30.792;2024-01-15T04:29:44;97794.88;;;-1.84;100.00
73105;BME280;61296;50.526;30.792;2024-01-15T04:45:17;97817.31;;;-1.80;100.00
73105;BME280;61296;50.526;30.792;2024-01-15T05:00:51;97816.16;;;-2.03;100.00
73105;BME280;61296;50.526;30.792;2024-01-15T05:16:24;97814.16;;;-2.06;100.00
73105;BME280;61296;50.526;30.792;2024-01-15T05:31:57;97831.97;;;-2.01;98.76
73105;BME280;61296;50.526;30.792;2024-01-15T05:47:30;97796.22;;;-2.35;98.08
73105;BME280;61296;50.526;30.792;2024-01-15T06:03:03;97839.72;;;-2.12;96.85
73105;BME280;61296;50.526;30.792;2024-01-15T06:18:36;97818.59;;;-2.10;95.64
73105;BME280;61296;50.526;30.792;2024-01-15T06:34:09;97855.03;;;-1.92;94.68
73105;BME280;61296;50.526;30.792;2024-01-15T06:49:42;97872.13;;;-1.63;93.42
73105;BME280;61296;50.526;30.792;2024-01-15T07:05:15;97856.16;;;-1.68;92.25
73105;BME280;61296;50.526;30.792;2024-01-15T07:20:48;97847.00;;;-1.55;91.89
73105;BME280;61296;50.526;30.792;2024-01-15T07:36:21;97790.16;;;-1.87;95.74
73105;BME280;61296;50.526;30.792;2024-01-15T07:51:54;97825.19;;;-1.50;98.10
73105;BME280;61296;50.526;30.792;2024-01-15T08:07:27;97810.22;;;-1.48;98.74
73105;BME280;61296;50.526;30.792;2024-01-15T08:23:00;97807.19;;;-1.22;98.51
73105;BME280;61296;50.526;30.792;2024-01-15T08:38:32;97821.53;;;-1.05;96.18
73105;BME280;61296;50.526;30.792;2024-01-15T08:54:05;97818.63;;;-1.00;94.24
73105;BME280;61296;50.526;30.792;2024-01-15T09:09:38;97784.19;;;-0.91;90.23
73105;BME280;61296;50.526;30.792;2024-01-15T09:25:11;97770.66;;;-0.79;87.57
73105;BME280;61296;50.526;30.792;2024-01-15T09:40:45;97726.09;;;-0.73;84.66
73105;BME280;61296;50.526;30.792;2024-01-15T09:56:19;97754.47;;;-0.35;82.30
73105;BME280;61296;50.526;30.792;2024-01-15T10:11:52;97730.28;;;0.00;80.75
73105;BME280;61296;50.526;30.792;2024-01-15T10:27:26;97673.94;;;-0.45;80.55
73105;BME280;61296;50.526;30.792;2024-01-15T10:42:59;97738.53;;;-0.09;80.21
73105;BME280;61296;50.526;30.792;2024-01-15T10:58:33;97645.91;;;-0.56;79.31
73105;BME280;61296;50.526;30.792;2024-01-15T11:14:06;97685.44;;;-0.01;79.13
73105;BME280;61296;50.526;30.792;2024-01-15T11:29:42;97650.94;;;-0.23;80.72
73105;BME280;61296;50.526;30.792;2024-01-15T11:45:18;97641.91;;;-0.47;80.85
73105;BME280;61296;50.526;30.792;2024-01-15T12:00:52;97645.56;;;-0.39;82.25
73105;BME280;61296;50.526;30.792;2024-01-15T12:16:25;97615.50;;;-0.69;82.39
73105;BME280;61296;50.526;30.792;2024-01-15T12:31:58;97639.28;;;-0.43;85.03
73105;BME280;61296;50.526;30.792;2024-01-15T12:47:31;97642.41;;;-0.57;82.90
73105;BME280;61296;50.526;30.792;2024-01-15T13:03:04;97618.28;;;-0.66;83.48
73105;BME280;61296;50.526;30.792;2024-01-15T13:18:37;97635.91;;;-0.40;81.44
73105;BME280;61296;50.526;30.792;2024-01-15T13:34:10;97623.88;;;-0.59;81.69
73105;BME280;61296;50.526;30.792;2024-01-15T13:49:43;97622.31;;;-0.60;80.38
73105;BME280;61296;50.526;30.792;2024-01-15T14:05:16;97615.88;;;-0.71;80.22
73105;BME280;61296;50.526;30.792;2024-01-15T14:20:49;97616.19;;;-1.04;81.15
73105;BME280;61296;50.526;30.792;2024-01-15T14:36:22;97598.97;;;-1.55;81.92
73105;BME280;61296;50.526;30.792;2024-01-15T14:51:55;97632.81;;;-1.70;82.97
73105;BME280;61296;50.526;30.792;2024-01-15T15:07:28;97564.78;;;-2.07;83.49
73105;BME280;61296;50.526;30.792;2024-01-15T15:23:01;97611.16;;;-1.73;84.13
73105;BME280;61296;50.526;30.792;2024-01-15T15:38:35;97572.56;;;-1.90;83.93
73105;BME280;61296;50.526;30.792;2024-01-15T15:54:08;97577.13;;;-1.78;83.28
73105;BME280;61296;50.526;30.792;2024-01-15T16:09:41;97594.09;;;-1.78;83.09
73105;BME280;61296;50.526;30.792;2024-01-15T16:25:15;97591.75;;;-1.79;82.86
73105;BME280;61296;50.526;30.792;2024-01-15T16:40:48;97492.03;;;-2.47;82.15
73105;BME280;61296;50.526;30.792;2024-01-15T16:56:21;97449.25;;;-2.77;81.49
73105;BME280;61296;50.526;30.792;2024-01-15T17:11:55;97569.38;;;-2.08;82.20
73105;BME280;61296;50.526;30.792;2024-01-15T17:27:28;97593.31;;;-1.78;81.88
73105;BME280;61296;50.526;30.792;2024-01-15T17:43:01;97574.47;;;-1.90;82.59
73105;BME280;61296;50.526;30.792;2024-01-15T17:58:34;97552.56;;;-2.17;83.06
73105;BME280;61296;50.526;30.792;2024-01-15T18:14:07;97558.25;;;-2.06;83.35
73105;BME280;61296;50.526;30.792;2024-01-15T18:29:40;97556.53;;;-1.86;82.82
73105;BME280;61296;50.526;30.792;2024-01-15T18:45:13;97495.31;;;-2.14;83.07
73105;BME280;61296;50.526;30.792;2024-01-15T19:00:46;97451.34;;;-2.46;83.17
73105;BME280;61296;50.526;30.792;2024-01-15T19:16:19;97537.19;;;-1.76;83.26
73105;BME280;61296;50.526;30.792;2024-01-15T19:31:55;97475.09;;;-2.36;83.87
73105;BME280;61296;50.526;30.792;2024-01-15T19:47:29;97398.72;;;-2.83;84.50
73105;BME280;61296;50.526;30.792;2024-01-15T20:03:02;97544.91;;;-2.03;85.30
73105;BME280;61296;50.526;30.792;2024-01-15T20:18:36;97468.50;;;-2.63;85.77
73105;BME280;61296;50.526;30.792;2024-01-15T20:34:08;97529.13;;;-2.41;86.33
73105;BME280;61296;50.526;30.792;2024-01-15T20:49:34;97516.84;;;-2.66;86.84
73105;BME280;61296;50.526;30.792;2024-01-15T21:05:08;97497.34;;;-2.75;87.46
73105;BME280;61296;50.526;30.792;2024-01-15T21:20:43;97461.03;;;-3.06;87.39
73105;BME280;61296;50.526;30.792;2024-01-15T21:36:16;97496.00;;;-2.69;88.05
73105;BME280;61296;50.526;30.792;2024-01-15T21:51:49;97452.44;;;-3.11;87.71
73105;BME280;61296;50.526;30.792;2024-01-15T22:07:22;97533.34;;;-2.80;88.70
73105;BME280;61296;50.526;30.792;2024-01-15T22:22:55;97525.72;;;-2.78;88.94
73105;BME280;61296;50.526;30.792;2024-01-15T22:38:28;97517.50;;;-2.81;89.62
73105;BME280;61296;50.526;30.792;2024-01-15T22:54:02;97511.91;;;-2.64;88.94
73105;BME280;61296;50.526;30.792;2024-01-15T23:09:34;97532.31;;;-2.63;89.09
73105;BME280;61296;50.526;30.792;2024-01-15T23:25:08;97521.19;;;-2.62;89.03
73105;BME280;61296;50.526;30.792;2024-01-15T23:40:41;97519.97;;;-2.64;89.10
73105;BME280;61296;50.526;30.792;2024-01-15T23:56:14;97462.38;;;-2.75;88.77
